Wetterdaten: Woche 12.01.09 - 18.01.09 (KW3)
Datum Zeit Temperatur Luftfeuchte Luftdruck Niederschlag Wind Richtung Sonnenschein Solar Taupunkt Windchill Windben
12.01.2009 00:00 -6.6 C 91 % 1034.5 hPa 0.0 l/m 2.4 km/h (1 Bft) O-SO 0.00 h 0 W/m -7.8 C -7.1 C 4.2 km/h (1 Bft)
12.01.2009 01:00 -6.6 C 91 % 1033.9 hPa 0.0 l/m 2.7 km/h (1 Bft) O 0.00 h 0 W/m -7.9 C -7.1 C 5.0 km/h (1 Bft)
12.01.2009 02:00 -6.7 C 91 % 1033.7 hPa 0.0 l/m 2.8 km/h (1 Bft) O-SO 0.00 h 0 W/m -7.9 C -7.6 C 5.0 km/h (1 Bft)
12.01.2009 03:00 -6.7 C 91 % 1033.5 hPa 0.0 l/m 1.8 km/h (1 Bft) O-SO 0.00 h 0 W/m -7.9 C -6.8 C 3.5 km/h (1 Bft)
12.01.2009 04:00 -6.6 C 91 % 1033.2 hPa 0.0 l/m 1.3 km/h (1 Bft) O-SO 0.00 h 0 W/m -7.9 C -6.7 C 2.7 km/h (1 Bft)
12.01.2009 05:00 -6.6 C 90 % 1032.9 hPa 0.0 l/m 0.1 km/h (0 Bft) O-SO 0.00 h 0 W/m -7.9 C -6.6 C 0.7 km/h (0 Bft)
12.01.2009 06:00 -6.5 C 90 % 1032.8 hPa 0.0 l/m 0.7 km/h (0 Bft) O-SO 0.00 h 0 W/m -7.9 C -6.5 C 1.6 km/h (1 Bft)
12.01.2009 07:00 -6.8 C 89 % 1032.7 hPa 0.0 l/m 1.5 km/h (1 Bft) O-SO 0.00 h 0 W/m -8.3 C -6.8 C 3.1 km/h (1 Bft)
12.01.2009 08:00 -6.8 C 89 % 1032.8 hPa 0.0 l/m 1.1 km/h (1 Bft) O-SO 0.00 h 12 W/m -8.3 C -6.9 C 2.5 km/h (1 Bft)
12.01.2009 09:00 -6.6 C 89 % 1032.8 hPa 0.0 l/m 0.4 km/h (0 Bft) S-SO 0.00 h 44 W/m -8.1 C -6.6 C 1.8 km/h (1 Bft)
12.01.2009 10:00 -6.2 C 88 % 1032.8 hPa 0.0 l/m 0.5 km/h (0 Bft) S-SO 0.00 h 87 W/m -7.9 C -6.2 C 2.3 km/h (1 Bft)
12.01.2009 11:00 -5.8 C 86 % 1032.5 hPa 0.0 l/m 0.5 km/h (0 Bft) S-SO 0.00 h 132 W/m -7.7 C -5.8 C 2.2 km/h (1 Bft)
12.01.2009 12:00 -5.1 C 83 % 1031.6 hPa 0.0 l/m 1.2 km/h (1 Bft) S-SO 0.67 h 257 W/m -7.5 C -5.1 C 3.1 km/h (1 Bft)
12.01.2009 13:00 -4.2 C 78 % 1030.5 hPa 0.0 l/m 2.0 km/h (1 Bft) W 1.00 h 264 W/m -7.5 C -4.3 C 4.1 km/h (1 Bft)
12.01.2009 14:00 -3.8 C 77 % 1029.8 hPa 0.0 l/m 0.9 km/h (0 Bft) N-NO 1.00 h 214 W/m -7.2 C -3.8 C 2.4 km/h (1 Bft)
12.01.2009 15:00 -3.6 C 77 % 1029.4 hPa 0.0 l/m 1.2 km/h (1 Bft) O-SO 0.98 h 120 W/m -7.0 C -3.6 C 2.5 km/h (1 Bft)
12.01.2009 16:00 -3.7 C 80 % 1029.1 hPa 0.0 l/m 0.3 km/h (0 Bft) O-SO 0.07 h 25 W/m -6.6 C -3.7 C 1.1 km/h (1 Bft)
12.01.2009 17:00 -5.2 C 84 % 1029.0 hPa 0.0 l/m 1.1 km/h (1 Bft) O-SO 0.00 h 0 W/m -7.4 C -5.2 C 2.1 km/h (1 Bft)
12.01.2009 18:00 -6.2 C 88 % 1028.9 hPa 0.0 l/m 2.0 km/h (1 Bft) O-SO 0.00 h 0 W/m -7.9 C -6.4 C 3.2 km/h (1 Bft)
12.01.2009 19:00 -6.6 C 89 % 1028.6 hPa 0.0 l/m 3.3 km/h (1 Bft) O-SO 0.00 h 0 W/m -8.1 C -7.2 C 5.1 km/h (1 Bft)
12.01.2009 20:00 -7.3 C 90 % 1028.5 hPa 0.0 l/m 2.2 km/h (1 Bft) O-SO 0.00 h 0 W/m -8.6 C -7.4 C 3.9 km/h (1 Bft)
12.01.2009 21:00 -7.3 C 91 % 1028.3 hPa 0.0 l/m 2.7 km/h (1 Bft) O-SO 0.00 h 0 W/m -8.4 C -7.8 C 4.5 km/h (1 Bft)
12.01.2009 22:00 -7.0 C 92 % 1028.0 hPa 0.0 l/m 4.0 km/h (1 Bft) O-SO 0.00 h 0 W/m -8.1 C -8.3 C 6.4 km/h (2 Bft)
12.01.2009 23:00 -6.5 C 92 % 1027.4 hPa 0.0 l/m 3.5 km/h (1 Bft) O-SO 0.00 h 0 W/m -7.6 C -7.7 C 5.4 km/h (1 Bft)
13.01.2009 00:00 -6.6 C 92 % 1026.9 hPa 0.0 l/m 3.4 km/h (1 Bft) O-SO 0.00 h 0 W/m -7.7 C -7.4 C 5.6 km/h (1 Bft)
13.01.2009 01:00 -6.5 C 92 % 1026.4 hPa 0.0 l/m 2.9 km/h (1 Bft) O-SO 0.00 h 0 W/m -7.6 C -7.4 C 4.8 km/h (1 Bft)
13.01.2009 02:00 -6.7 C 92 % 1026.1 hPa 0.0 l/m 3.1 km/h (1 Bft) O-SO 0.00 h 0 W/m -7.8 C -7.5 C 5.7 km/h (1 Bft)
13.01.2009 03:00 -6.8 C 92 % 1025.5 hPa 0.0 l/m 3.4 km/h (1 Bft) O-SO 0.00 h 0 W/m -7.9 C -7.8 C 5.5 km/h (1 Bft)
13.01.2009 04:00 -7.1 C 91 % 1025.2 hPa 0.0 l/m 3.8 km/h (1 Bft) O-SO 0.00 h 0 W/m -8.3 C -8.1 C 6.2 km/h (2 Bft)
13.01.2009 05:00 -7.4 C 91 % 1025.0 hPa 0.0 l/m 3.8 km/h (1 Bft) O-SO 0.00 h 0 W/m -8.6 C -8.6 C 6.4 km/h (2 Bft)
13.01.2009 06:00 -7.4 C 91 % 1024.6 hPa 0.0 l/m 3.4 km/h (1 Bft) O-SO 0.00 h 0 W/m -8.6 C -8.6 C 5.9 km/h (2 Bft)
13.01.2009 07:00 -7.4 C 91 % 1024.1 hPa 0.0 l/m 2.6 km/h (1 Bft) O-SO 0.00 h 0 W/m -8.6 C -7.6 C 4.6 km/h (1 Bft)
13.01.2009 08:00 -8.0 C 91 % 1023.8 hPa 0.0 l/m 1.1 km/h (0 Bft) SO 0.02 h 18 W/m -9.3 C -8.0 C 2.6 km/h (1 Bft)
13.01.2009 09:00 -7.9 C 91 % 1023.6 hPa 0.0 l/m 2.9 km/h (1 Bft) O-SO 0.00 h 58 W/m -9.2 C -8.6 C 4.9 km/h (1 Bft)
13.01.2009 10:00 -7.2 C 90 % 1023.3 hPa 0.0 l/m 2.5 km/h (1 Bft) O-SO 0.48 h 136 W/m -8.5 C -7.6 C 4.4 km/h (1 Bft)
13.01.2009 11:00 -5.8 C 86 % 1022.6 hPa 0.0 l/m 2.2 km/h (1 Bft) O-SO 1.00 h 256 W/m -7.7 C -6.0 C 4.3 km/h (1 Bft)
13.01.2009 12:00 -4.5 C 82 % 1021.5 hPa 0.0 l/m 4.5 km/h (1 Bft) SO 1.00 h 294 W/m -7.2 C -6.1 C 6.9 km/h (2 Bft)
13.01.2009 13:00 -3.1 C 80 % 1020.7 hPa 0.0 l/m 2.2 km/h (1 Bft) O-SO 1.00 h 268 W/m -6.1 C -3.1 C 4.0 km/h (1 Bft)
13.01.2009 14:00 -2.0 C 77 % 1019.9 hPa 0.0 l/m 0.9 km/h (0 Bft) O-SO 1.00 h 221 W/m -5.5 C -2.0 C 2.5 km/h (1 Bft)
13.01.2009 15:00 -1.3 C 76 % 1019.4 hPa 0.0 l/m 2.2 km/h (1 Bft) S-SO 1.00 h 127 W/m -5.0 C -1.5 C 4.2 km/h (1 Bft)
13.01.2009 16:00 -2.0 C 79 % 1019.1 hPa 0.0 l/m 3.6 km/h (1 Bft) O-SO 0.17 h 29 W/m -5.2 C -2.7 C 5.2 km/h (1 Bft)
13.01.2009 17:00 -3.8 C 84 % 1019.0 hPa 0.0 l/m 4.6 km/h (1 Bft) SO 0.00 h 0 W/m -6.0 C -5.2 C 6.2 km/h (2 Bft)
13.01.2009 18:00 -4.6 C 87 % 1019.1 hPa 0.0 l/m 5.5 km/h (1 Bft) SO 0.00 h 0 W/m -6.5 C -6.9 C 7.4 km/h (2 Bft)
13.01.2009 19:00 -5.6 C 89 % 1019.2 hPa 0.0 l/m 4.2 km/h (1 Bft) O-SO 0.00 h 0 W/m -7.2 C -6.8 C 5.5 km/h (1 Bft)
13.01.2009 20:00 -6.0 C 90 % 1019.5 hPa 0.0 l/m 1.7 km/h (1 Bft) O-SO 0.00 h 0 W/m -7.4 C -6.2 C 3.0 km/h (1 Bft)
13.01.2009 21:00 -6.9 C 91 % 1019.3 hPa 0.0 l/m 1.4 km/h (1 Bft) S-SO 0.00 h 0 W/m -8.1 C -6.9 C 2.8 km/h (1 Bft)
13.01.2009 22:00 -7.3 C 92 % 1018.9 hPa 0.0 l/m 1.3 km/h (1 Bft) S-SO 0.00 h 0 W/m -8.3 C -7.4 C 2.8 km/h (1 Bft)
13.01.2009 23:00 -6.8 C 93 % 1018.3 hPa 0.0 l/m 1.7 km/h (1 Bft) S-SO 0.00 h 0 W/m -7.7 C -7.0 C 3.6 km/h (1 Bft)
14.01.2009 00:00 -7.0 C 93 % 1018.0 hPa 0.0 l/m 3.4 km/h (1 Bft) O-SO 0.00 h 0 W/m -8.0 C -7.9 C 5.1 km/h (1 Bft)
14.01.2009 01:00 -6.7 C 93 % 1017.9 hPa 0.0 l/m 2.3 km/h (1 Bft) SO 0.00 h 0 W/m -7.6 C -6.8 C 4.2 km/h (1 Bft)
14.01.2009 02:00 -6.6 C 93 % 1017.8 hPa 0.0 l/m 1.8 km/h (1 Bft) O-SO 0.00 h 0 W/m -7.5 C -6.9 C 3.6 km/h (1 Bft)
14.01.2009 03:00 -6.4 C 93 % 1017.6 hPa 0.0 l/m 0.2 km/h (0 Bft) O-SO 0.00 h 0 W/m -7.3 C -6.4 C 0.8 km/h (0 Bft)
14.01.2009 04:00 -6.4 C 93 % 1017.6 hPa 0.0 l/m 0.3 km/h (0 Bft) S-SO 0.00 h 0 W/m -7.3 C -6.4 C 1.4 km/h (1 Bft)
14.01.2009 05:00 -6.6 C 93 % 1018.0 hPa 0.0 l/m 0.7 km/h (0 Bft) S 0.00 h 0 W/m -7.5 C -6.6 C 1.9 km/h (1 Bft)
14.01.2009 06:00 -6.9 C 93 % 1018.5 hPa 0.0 l/m 2.1 km/h (1 Bft) O-SO 0.00 h 0 W/m -7.8 C -7.1 C 4.0 km/h (1 Bft)
14.01.2009 07:00 -6.9 C 93 % 1018.8 hPa 0.0 l/m 2.0 km/h (1 Bft) SO 0.00 h 0 W/m -7.8 C -7.1 C 3.6 km/h (1 Bft)
14.01.2009 08:00 -7.0 C 93 % 1018.7 hPa 0.0 l/m 0.7 km/h (0 Bft) O-SO 0.00 h 12 W/m -7.9 C -7.0 C 2.0 km/h (1 Bft)
14.01.2009 09:00 -6.8 C 93 % 1018.8 hPa 0.0 l/m 1.3 km/h (1 Bft) SO 0.57 h 87 W/m -7.8 C -6.9 C 3.1 km/h (1 Bft)
14.01.2009 10:00 -6.3 C 91 % 1018.7 hPa 0.0 l/m 2.7 km/h (1 Bft) O-SO 0.27 h 124 W/m -7.5 C -6.6 C 4.8 km/h (1 Bft)
14.01.2009 11:00 -4.2 C 85 % 1018.5 hPa 0.0 l/m 2.2 km/h (1 Bft) W-SW 0.95 h 283 W/m -6.4 C -4.5 C 4.3 km/h (1 Bft)
14.01.2009 12:00 -3.1 C 82 % 1017.8 hPa 0.0 l/m 1.5 km/h (1 Bft) S 0.35 h 180 W/m -5.8 C -3.1 C 3.4 km/h (1 Bft)
14.01.2009 13:00 -2.0 C 80 % 1017.1 hPa 0.0 l/m 1.1 km/h (1 Bft) SW 0.00 h 137 W/m -5.1 C -2.1 C 3.1 km/h (1 Bft)
14.01.2009 14:00 -1.4 C 79 % 1016.8 hPa 0.0 l/m 0.7 km/h (0 Bft) S 0.00 h 111 W/m -4.5 C -1.4 C 2.3 km/h (1 Bft)
14.01.2009 15:00 -1.3 C 80 % 1017.0 hPa 0.0 l/m 0.2 km/h (0 Bft) S 0.00 h 48 W/m -4.3 C -1.3 C 0.7 km/h (0 Bft)
14.01.2009 16:00 -1.2 C 82 % 1017.4 hPa 0.0 l/m 1.7 km/h (1 Bft) S 0.00 h 12 W/m -4.0 C -1.3 C 4.0 km/h (1 Bft)
14.01.2009 17:00 -1.7 C 88 % 1018.1 hPa 0.0 l/m 2.6 km/h (1 Bft) S-SO 0.00 h 0 W/m -3.4 C -1.9 C 5.6 km/h (1 Bft)
14.01.2009 18:00 -2.0 C 92 % 1018.7 hPa 0.6 l/m 1.0 km/h (0 Bft) S 0.00 h 0 W/m -3.1 C -2.0 C 2.7 km/h (1 Bft)
14.01.2009 19:00 -2.0 C 94 % 1019.0 hPa 0.4 l/m 0.8 km/h (0 Bft) S 0.00 h 0 W/m -2.8 C -2.0 C 2.2 km/h (1 Bft)
14.01.2009 20:00 -1.8 C 95 % 1019.1 hPa 0.4 l/m 0.7 km/h (0 Bft) S 0.00 h 0 W/m -2.5 C -1.8 C 2.5 km/h (1 Bft)
14.01.2009 21:00 -1.8 C 95 % 1019.2 hPa 0.2 l/m 0.7 km/h (0 Bft) S-SO 0.00 h 0 W/m -2.5 C -1.8 C 1.8 km/h (1 Bft)
14.01.2009 22:00 -1.6 C 95 % 1019.3 hPa 0.4 l/m 0.5 km/h (0 Bft) S-SO 0.00 h 0 W/m -2.3 C -1.6 C 1.6 km/h (1 Bft)
14.01.2009 23:00 -1.5 C 96 % 1019.5 hPa 0.2 l/m 1.2 km/h (1 Bft) O 0.00 h 0 W/m -2.1 C -1.5 C 2.5 km/h (1 Bft)
15.01.2009 00:00 -1.4 C 96 % 1019.5 hPa 0.2 l/m 0.4 km/h (0 Bft) O 0.00 h 0 W/m -2.0 C -1.4 C 0.9 km/h (0 Bft)
15.01.2009 01:00 -1.4 C 96 % 1019.2 hPa 0.0 l/m 0.0 km/h (0 Bft) N 0.00 h 0 W/m -2.0 C -1.4 C 0.1 km/h (0 Bft)
15.01.2009 02:00 -1.4 C 96 % 1019.1 hPa 0.0 l/m 0.0 km/h (0 Bft) N 0.00 h 0 W/m -2.0 C -1.4 C 0.1 km/h (0 Bft)
15.01.2009 03:00 -1.4 C 96 % 1019.1 hPa 0.0 l/m 0.0 km/h (0 Bft) N 0.00 h 0 W/m -2.0 C -1.4 C 0.1 km/h (0 Bft)
15.01.2009 04:00 -1.4 C 96 % 1019.1 hPa 0.0 l/m 0.3 km/h (0 Bft) O 0.00 h 0 W/m -2.0 C -1.4 C 1.1 km/h (0 Bft)
15.01.2009 05:00 -1.4 C 96 % 1019.3 hPa 0.0 l/m 0.0 km/h (0 Bft) N 0.00 h 0 W/m -2.0 C -1.4 C 0.0 km/h (0 Bft)
15.01.2009 06:00 -1.4 C 96 % 1019.4 hPa 0.0 l/m 0.1 km/h (0 Bft) N-NO 0.00 h 0 W/m -1.9 C -1.4 C 0.8 km/h (0 Bft)
15.01.2009 07:00 -1.3 C 96 % 1019.6 hPa 0.0 l/m 0.0 km/h (0 Bft) N 0.00 h 0 W/m -1.9 C -1.3 C 0.0 km/h (0 Bft)
15.01.2009 08:00 -1.2 C 96 % 1020.1 hPa 0.0 l/m 0.0 km/h (0 Bft) N-NO 0.00 h 7 W/m -1.8 C -1.2 C 0.5 km/h (0 Bft)
15.01.2009 09:00 -0.9 C 96 % 1020.6 hPa 0.0 l/m 0.5 km/h (0 Bft) N-NO 0.00 h 17 W/m -1.4 C -0.9 C 1.8 km/h (1 Bft)
15.01.2009 10:00 -0.2 C 97 % 1020.6 hPa 0.0 l/m 0.1 km/h (0 Bft) N-NO 0.00 h 50 W/m -0.6 C -0.2 C 0.5 km/h (0 Bft)
15.01.2009 11:00 1.1 C 92 % 1020.1 hPa 0.0 l/m 1.5 km/h (1 Bft) O-SO 0.63 h 192 W/m -0.0 C 0.8 C 3.0 km/h (1 Bft)
15.01.2009 12:00 1.8 C 86 % 1019.5 hPa 0.0 l/m 3.4 km/h (1 Bft) O-SO 0.32 h 167 W/m -0.3 C 1.1 C 6.2 km/h (2 Bft)
15.01.2009 13:00 2.2 C 83 % 1019.1 hPa 0.0 l/m 1.2 km/h (1 Bft) O 0.05 h 120 W/m -0.4 C 2.2 C 3.1 km/h (1 Bft)
15.01.2009 14:00 2.3 C 83 % 1018.6 hPa 0.0 l/m 1.7 km/h (1 Bft) O-SO 0.15 h 127 W/m -0.3 C 2.2 C 3.6 km/h (1 Bft)
15.01.2009 15:00 2.7 C 81 % 1018.6 hPa 0.0 l/m 0.6 km/h (0 Bft) O 0.02 h 78 W/m -0.2 C 2.7 C 1.8 km/h (1 Bft)
15.01.2009 16:00 2.7 C 81 % 1019.0 hPa 0.0 l/m 1.1 km/h (1 Bft) O 0.00 h 18 W/m -0.2 C 2.6 C 2.8 km/h (1 Bft)
15.01.2009 17:00 2.4 C 81 % 1019.9 hPa 0.0 l/m 2.2 km/h (1 Bft) O-SO 0.00 h 0 W/m -0.6 C 2.2 C 4.7 km/h (1 Bft)
15.01.2009 18:00 2.1 C 82 % 1020.9 hPa 0.0 l/m 0.5 km/h (0 Bft) O 0.00 h 0 W/m -0.6 C 2.1 C 1.9 km/h (1 Bft)
15.01.2009 19:00 1.7 C 85 % 1021.5 hPa 0.0 l/m 0.9 km/h (0 Bft) SO 0.00 h 0 W/m -0.6 C 1.7 C 2.3 km/h (1 Bft)
15.01.2009 20:00 1.3 C 87 % 1022.0 hPa 0.0 l/m 1.3 km/h (1 Bft) SO 0.00 h 0 W/m -0.6 C 1.2 C 2.5 km/h (1 Bft)
15.01.2009 21:00 1.4 C 86 % 1022.3 hPa 0.0 l/m 2.1 km/h (1 Bft) O-SO 0.00 h 0 W/m -0.7 C 1.0 C 3.4 km/h (1 Bft)
15.01.2009 22:00 1.3 C 87 % 1022.4 hPa 0.0 l/m 0.4 km/h (0 Bft) O-SO 0.00 h 0 W/m -0.7 C 1.3 C 0.9 km/h (0 Bft)
15.01.2009 23:00 1.1 C 87 % 1022.3 hPa 0.0 l/m 0.1 km/h (0 Bft) O-SO 0.00 h 0 W/m -0.8 C 1.1 C 0.7 km/h (0 Bft)
16.01.2009 00:00 0.8 C 88 % 1022.5 hPa 0.0 l/m 0.4 km/h (0 Bft) O-SO 0.00 h 0 W/m -1.0 C 0.8 C 0.6 km/h (0 Bft)
16.01.2009 01:00 0.7 C 89 % 1022.5 hPa 0.0 l/m 0.0 km/h (0 Bft) N 0.00 h 0 W/m -0.9 C 0.7 C 0.0 km/h (0 Bft)
16.01.2009 02:00 0.5 C 90 % 1022.8 hPa 0.0 l/m 0.1 km/h (0 Bft) O-SO 0.00 h 0 W/m -0.9 C 0.5 C 0.4 km/h (0 Bft)
16.01.2009 03:00 0.5 C 91 % 1023.1 hPa 0.0 l/m 0.7 km/h (0 Bft) S-SO 0.00 h 0 W/m -0.9 C 0.5 C 2.0 km/h (1 Bft)
16.01.2009 04:00 0.4 C 87 % 1023.3 hPa 0.0 l/m 2.1 km/h (1 Bft) S-SO 0.00 h 0 W/m -1.5 C 0.2 C 4.6 km/h (1 Bft)
16.01.2009 05:00 0.3 C 85 % 1023.7 hPa 0.0 l/m 2.5 km/h (1 Bft) SO 0.00 h 0 W/m -1.9 C -0.1 C 4.6 km/h (1 Bft)
16.01.2009 06:00 0.1 C 85 % 1023.9 hPa 0.0 l/m 1.1 km/h (1 Bft) SO 0.00 h 0 W/m -2.1 C 0.0 C 2.9 km/h (1 Bft)
16.01.2009 07:00 -0.1 C 85 % 1024.7 hPa 0.0 l/m 2.6 km/h (1 Bft) S-SO 0.00 h 0 W/m -2.3 C -0.4 C 5.5 km/h (1 Bft)
16.01.2009 08:00 -0.3 C 86 % 1025.3 hPa 0.0 l/m 3.7 km/h (1 Bft) SO 0.00 h 13 W/m -2.4 C -1.0 C 6.2 km/h (2 Bft)
16.01.2009 09:00 -0.2 C 85 % 1025.6 hPa 0.0 l/m 3.0 km/h (1 Bft) SO 0.00 h 47 W/m -2.4 C -0.7 C 5.7 km/h (1 Bft)
16.01.2009 10:00 -0.1 C 84 % 1026.0 hPa 0.0 l/m 4.9 km/h (1 Bft) SO 0.00 h 92 W/m -2.5 C -1.4 C 7.5 km/h (2 Bft)
16.01.2009 11:00 0.1 C 83 % 1026.1 hPa 0.0 l/m 3.6 km/h (1 Bft) SO 0.00 h 123 W/m -2.4 C -0.5 C 6.2 km/h (2 Bft)
16.01.2009 12:00 0.4 C 81 % 1025.8 hPa 0.0 l/m 2.1 km/h (1 Bft) SO 0.00 h 149 W/m -2.4 C 0.3 C 4.2 km/h (1 Bft)
16.01.2009 13:00 0.5 C 81 % 1025.5 hPa 0.0 l/m 4.1 km/h (1 Bft) O-SO 0.42 h 180 W/m -2.3 C -0.2 C 6.2 km/h (2 Bft)
16.01.2009 14:00 0.8 C 80 % 1025.2 hPa 0.0 l/m 3.6 km/h (1 Bft) SO 0.90 h 203 W/m -2.2 C 0.3 C 5.7 km/h (1 Bft)
16.01.2009 15:00 0.9 C 80 % 1025.1 hPa 0.0 l/m 2.7 km/h (1 Bft) SO 0.97 h 132 W/m -2.2 C 0.8 C 4.3 km/h (1 Bft)
16.01.2009 16:00 -0.2 C 82 % 1025.4 hPa 0.0 l/m 2.7 km/h (1 Bft) SO 0.25 h 33 W/m -2.9 C -0.6 C 4.2 km/h (1 Bft)
16.01.2009 17:00 -1.3 C 84 % 1025.9 hPa 0.0 l/m 1.3 km/h (1 Bft) SO 0.00 h 0 W/m -3.6 C -1.4 C 2.1 km/h (1 Bft)
16.01.2009 18:00 -2.1 C 87 % 1026.3 hPa 0.0 l/m 1.1 km/h (1 Bft) SO 0.00 h 0 W/m -3.9 C -2.2 C 2.3 km/h (1 Bft)
16.01.2009 19:00 -3.0 C 89 % 1026.5 hPa 0.0 l/m 3.2 km/h (1 Bft) O-SO 0.00 h 0 W/m -4.5 C -3.5 C 4.7 km/h (1 Bft)
16.01.2009 20:00 -3.9 C 90 % 1026.4 hPa 0.0 l/m 4.0 km/h (1 Bft) O-SO 0.00 h 0 W/m -5.3 C -5.2 C 5.3 km/h (1 Bft)
16.01.2009 21:00 -4.1 C 91 % 1026.2 hPa 0.0 l/m 4.5 km/h (1 Bft) O-SO 0.00 h 0 W/m -5.4 C -5.6 C 6.2 km/h (2 Bft)
16.01.2009 22:00 -4.2 C 92 % 1026.1 hPa 0.0 l/m 4.7 km/h (1 Bft) O 0.00 h 0 W/m -5.4 C -5.8 C 5.9 km/h (2 Bft)
16.01.2009 23:00 -3.5 C 93 % 1025.8 hPa 0.0 l/m 4.3 km/h (1 Bft) O-SO 0.00 h 0 W/m -4.5 C -4.7 C 5.9 km/h (2 Bft)
17.01.2009 00:00 -2.9 C 93 % 1025.5 hPa 0.0 l/m 2.0 km/h (1 Bft) O-SO 0.00 h 0 W/m -3.9 C -3.1 C 3.7 km/h (1 Bft)
17.01.2009 01:00 -2.6 C 93 % 1025.4 hPa 0.0 l/m 2.5 km/h (1 Bft) O-SO 0.00 h 0 W/m -3.5 C -2.9 C 4.6 km/h (1 Bft)
17.01.2009 02:00 -2.5 C 93 % 1025.4 hPa 0.0 l/m 0.9 km/h (0 Bft) O-SO 0.00 h 0 W/m -3.4 C -2.5 C 2.3 km/h (1 Bft)
17.01.2009 03:00 -2.4 C 93 % 1025.4 hPa 0.0 l/m 1.5 km/h (1 Bft) S-SO 0.00 h 0 W/m -3.4 C -2.5 C 4.1 km/h (1 Bft)
17.01.2009 04:00 -2.6 C 93 % 1025.3 hPa 0.0 l/m 0.7 km/h (0 Bft) S 0.00 h 0 W/m -3.5 C -2.6 C 2.0 km/h (1 Bft)
17.01.2009 05:00 -2.8 C 93 % 1025.3 hPa 0.0 l/m 0.5 km/h (0 Bft) S-SO 0.00 h 0 W/m -3.8 C -2.8 C 2.1 km/h (1 Bft)
17.01.2009 06:00 -2.9 C 92 % 1025.2 hPa 0.0 l/m 1.3 km/h (1 Bft) S-SO 0.00 h 0 W/m -4.0 C -3.0 C 3.2 km/h (1 Bft)
17.01.2009 07:00 -3.2 C 92 % 1025.4 hPa 0.0 l/m 0.2 km/h (0 Bft) SO 0.00 h 0 W/m -4.3 C -3.2 C 0.9 km/h (0 Bft)
17.01.2009 08:00 -3.2 C 92 % 1025.9 hPa 0.0 l/m 0.4 km/h (0 Bft) S-SO 0.00 h 14 W/m -4.3 C -3.2 C 1.4 km/h (1 Bft)
17.01.2009 09:00 -2.9 C 91 % 1026.0 hPa 0.0 l/m 0.5 km/h (0 Bft) S-SO 0.00 h 49 W/m -4.1 C -2.9 C 1.5 km/h (1 Bft)
17.01.2009 10:00 -2.4 C 89 % 1026.1 hPa 0.0 l/m 1.3 km/h (1 Bft) S 0.50 h 143 W/m -4.1 C -2.4 C 3.2 km/h (1 Bft)
17.01.2009 11:00 -1.6 C 83 % 1026.0 hPa 0.0 l/m 2.3 km/h (1 Bft) S 0.97 h 248 W/m -4.1 C -1.6 C 4.9 km/h (1 Bft)
17.01.2009 12:00 -0.3 C 78 % 1025.3 hPa 0.0 l/m 3.4 km/h (1 Bft) S 0.98 h 296 W/m -3.6 C -0.7 C 6.7 km/h (2 Bft)
17.01.2009 13:00 1.0 C 74 % 1024.5 hPa 0.0 l/m 4.3 km/h (1 Bft) S 1.00 h 331 W/m -3.1 C 0.1 C 7.9 km/h (2 Bft)
17.01.2009 14:00 1.7 C 72 % 1023.8 hPa 0.0 l/m 5.4 km/h (1 Bft) S-SO 1.00 h 242 W/m -2.9 C 0.4 C 9.7 km/h (2 Bft)
17.01.2009 15:00 1.6 C 73 % 1023.7 hPa 0.0 l/m 4.6 km/h (1 Bft) S 0.97 h 136 W/m -2.7 C 0.6 C 8.8 km/h (2 Bft)
17.01.2009 16:00 1.0 C 75 % 1023.4 hPa 0.0 l/m 2.4 km/h (1 Bft) S 0.10 h 31 W/m -3.0 C 0.8 C 5.1 km/h (1 Bft)
17.01.2009 17:00 0.8 C 78 % 1023.5 hPa 0.0 l/m 1.3 km/h (1 Bft) S-SO 0.00 h 0 W/m -2.7 C 0.7 C 2.8 km/h (1 Bft)
17.01.2009 18:00 0.7 C 80 % 1023.5 hPa 0.0 l/m 3.0 km/h (1 Bft) S-SO 0.00 h 0 W/m -2.4 C 0.1 C 5.3 km/h (1 Bft)
17.01.2009 19:00 0.4 C 82 % 1023.6 hPa 0.0 l/m 0.9 km/h (0 Bft) S-SO 0.00 h 0 W/m -2.4 C 0.4 C 2.1 km/h (1 Bft)
17.01.2009 20:00 0.1 C 83 % 1023.0 hPa 0.0 l/m 1.3 km/h (1 Bft) S-SO 0.00 h 0 W/m -2.4 C -0.2 C 2.5 km/h (1 Bft)
17.01.2009 21:00 -0.6 C 85 % 1022.5 hPa 0.0 l/m 1.7 km/h (1 Bft) O 0.00 h 0 W/m -2.9 C -0.7 C 2.9 km/h (1 Bft)
17.01.2009 22:00 -1.7 C 88 % 1022.0 hPa 0.0 l/m 2.5 km/h (1 Bft) O 0.00 h 0 W/m -3.4 C -2.1 C 3.7 km/h (1 Bft)
17.01.2009 23:00 -2.4 C 90 % 1021.1 hPa 0.0 l/m 1.7 km/h (1 Bft) O 0.00 h 0 W/m -3.8 C -2.4 C 3.0 km/h (1 Bft)
18.01.2009 00:00 -2.9 C 92 % 1020.3 hPa 0.0 l/m 0.1 km/h (0 Bft) O-SO 0.00 h 0 W/m -4.0 C -2.9 C 0.2 km/h (0 Bft)
18.01.2009 01:00 -3.7 C 94 % 1019.6 hPa 0.0 l/m 2.7 km/h (1 Bft) O-SO 0.00 h 0 W/m -4.6 C -4.3 C 4.0 km/h (1 Bft)
18.01.2009 02:00 -3.9 C 95 % 1019.4 hPa 0.0 l/m 3.7 km/h (1 Bft) O-SO 0.00 h 0 W/m -4.6 C -4.8 C 5.4 km/h (1 Bft)
18.01.2009 03:00 -3.6 C 96 % 1018.8 hPa 0.0 l/m 1.8 km/h (1 Bft) O-SO 0.00 h 0 W/m -4.2 C -3.7 C 3.9 km/h (1 Bft)
18.01.2009 04:00 -3.7 C 97 % 1017.7 hPa 0.0 l/m 3.2 km/h (1 Bft) O-SO 0.00 h 0 W/m -4.1 C -4.4 C 5.0 km/h (1 Bft)
18.01.2009 05:00 -3.8 C 96 % 1016.3 hPa 0.0 l/m 2.9 km/h (1 Bft) O-SO 0.00 h 0 W/m -4.3 C -4.4 C 4.4 km/h (1 Bft)
18.01.2009 06:00 -4.0 C 96 % 1015.4 hPa 0.0 l/m 1.7 km/h (1 Bft) O-SO 0.00 h 0 W/m -4.5 C -4.1 C 3.1 km/h (1 Bft)
18.01.2009 07:00 -3.9 C 95 % 1014.1 hPa 0.0 l/m 2.8 km/h (1 Bft) SO 0.00 h 0 W/m -4.5 C -4.5 C 4.4 km/h (1 Bft)
18.01.2009 08:00 -3.4 C 96 % 1013.3 hPa 0.0 l/m 1.3 km/h (1 Bft) O-SO 0.00 h 13 W/m -4.0 C -3.5 C 2.8 km/h (1 Bft)
18.01.2009 09:00 -2.6 C 95 % 1012.6 hPa 0.0 l/m 4.0 km/h (1 Bft) SO 0.00 h 30 W/m -3.3 C -3.9 C 6.6 km/h (2 Bft)
18.01.2009 10:00 -1.1 C 91 % 1011.4 hPa 0.0 l/m 3.4 km/h (1 Bft) S-SO 0.00 h 51 W/m -2.3 C -1.8 C 6.0 km/h (2 Bft)
18.01.2009 11:00 -0.8 C 87 % 1010.0 hPa 0.0 l/m 2.9 km/h (1 Bft) N 0.00 h 57 W/m -2.6 C -1.3 C 5.5 km/h (1 Bft)
18.01.2009 12:00 -0.3 C 90 % 1009.4 hPa 0.0 l/m 1.6 km/h (1 Bft) N-NW 0.00 h 40 W/m -1.7 C -0.4 C 3.7 km/h (1 Bft)
18.01.2009 13:00 0.6 C 91 % 1008.4 hPa 0.2 l/m 2.4 km/h (1 Bft) N 0.00 h 48 W/m -0.7 C 0.1 C 4.8 km/h (1 Bft)
18.01.2009 14:00 3.4 C 91 % 1007.4 hPa 0.0 l/m 12.2 km/h (2 Bft) S-SO 0.00 h 38 W/m 2.0 C 0.4 C 22.8 km/h (4 Bft)
18.01.2009 15:00 3.7 C 89 % 1007.2 hPa 0.6 l/m 11.3 km/h (2 Bft) S-SW 0.00 h 22 W/m 2.1 C 0.9 C 21.1 km/h (4 Bft)
18.01.2009 16:00 4.1 C 89 % 1007.5 hPa 1.2 l/m 13.7 km/h (3 Bft) S-SW 0.00 h 16 W/m 2.4 C 1.0 C 22.1 km/h (4 Bft)
18.01.2009 17:00 3.7 C 92 % 1008.7 hPa 1.4 l/m 15.4 km/h (3 Bft) W 0.00 h 0 W/m 2.5 C 0.3 C 23.0 km/h (4 Bft)
18.01.2009 18:00 3.3 C 94 % 1009.5 hPa 1.6 l/m 10.2 km/h (2 Bft) W-NW 0.00 h 0 W/m 2.4 C 1.4 C 16.1 km/h (3 Bft)
18.01.2009 19:00 3.8 C 93 % 1010.7 hPa 1.4 l/m 16.1 km/h (3 Bft) W 0.00 h 0 W/m 2.8 C 0.2 C 24.0 km/h (4 Bft)
18.01.2009 20:00 4.0 C 91 % 1011.6 hPa 0.2 l/m 8.3 km/h (2 Bft) W 0.00 h 0 W/m 2.7 C 2.2 C 12.7 km/h (3 Bft)
18.01.2009 21:00 3.9 C 90 % 1012.2 hPa 0.0 l/m 9.8 km/h (2 Bft) W 0.00 h 0 W/m 2.4 C 1.8 C 15.1 km/h (3 Bft)
18.01.2009 22:00 4.7 C 83 % 1012.8 hPa 0.0 l/m 12.3 km/h (3 Bft) W 0.00 h 0 W/m 2.1 C 1.8 C 19.3 km/h (3 Bft)
18.01.2009 23:00 4.7 C 81 % 1013.3 hPa 0.0 l/m 8.0 km/h (2 Bft) W 0.00 h 0 W/m 1.7 C 2.9 C 12.5 km/h (3 Bft)
Min-Datum _ 13.01.09 17.01.09 18.01.09 - 12.01.09 - - - 13.01.09 13.01.09 12.01.09
_ Min-Zeit 09:00 14:09 16:00 - 00:15 - - - 08:39 09:21 00:31
Minimum _ -8.3 C 70 % 1007.0 hPa - 0.0 km/h (0 Bft) - - - -9.5 C -11.8 C 0.0 km/h (0 Bft)
Max-Datum _ 18.01.09 15.01.09 12.01.09 18.01.09 18.01.09 - 12.01.09 12.01.09 18.01.09 18.01.09 18.01.09
_ Max-Zeit 22:20 09:31 00:00 18:21 17:00 - 12:20 12:32 16:55 23:52 17:00
Maximum _ 4.8 C 97 % 1034.6 hPa 1.6 l/m 38.2 km/h
W (5 Bft)
- 0.02 h 406 W/m 3.0 C 4.6 C 52.1 km/h
W (7 Bft)
Durchschnitt _ -2.5 C 88 % 1022.0 hPa #9.0 l/m 2.5 km/h (1 Bft) O-SO #20:44 h 113 W/m -4.2 C -2.9 C 4.5 km/h (1 Bft)
© Kaiko 2009